Time;durP1;ratioP1;P1;durP2;ratioP2;P2;SDS_P1;SDS_P2;PMS_P1;PMS_P2;Temp;Humidity;BMP_temperature;BMP_pressure;BME280_temperature;BME280_humidity;BME280_pressure;Samples;Min_cycle;Max_cycle;Signal;HPM_P1;HPM_P2
2022/02/24 00:02:18;;;;;;;157.48;59.13;;;;;;;;;;5044799;28;20221;-96
2022/02/24 00:04:45;;;;;;;168.82;59.65;;;;;;;;;;5045494;28;20196;-96
2022/02/24 00:07:12;;;;;;;162.50;59.42;;;;;;;;;;5043180;28;20204;-95
2022/02/24 00:09:38;;;;;;;159.70;59.22;;;;;;;;;;5041823;28;20234;-94
2022/02/24 00:12:05;;;;;;;174.32;58.75;;;;;;;;;;5042312;28;20223;-95
2022/02/24 00:14:32;;;;;;;180.80;62.25;;;;;;;;;;5041220;28;20201;-96
2022/02/24 00:16:59;;;;;;;162.13;59.15;;;;;;;;;;5041012;28;20271;-96
2022/02/24 00:19:26;;;;;;;162.07;59.15;;;;;;;;;;5041169;28;20259;-95
2022/02/24 00:21:53;;;;;;;161.13;58.67;;;;;;;;;;5040043;28;20263;-95
2022/02/24 00:24:19;;;;;;;164.57;59.97;;;;;;;;;;5040597;28;20235;-94
2022/02/24 00:26:46;;;;;;;162.60;58.95;;;;;;;;;;5047875;28;20722;-95
2022/02/24 00:29:13;;;;;;;164.32;58.83;;;;;;;;;;5061451;28;20618;-95
2022/02/24 00:31:39;;;;;;;174.65;60.38;;;;;;;;;;5060490;28;20251;-95
2022/02/24 00:34:06;;;;;;;170.20;59.92;;;;;;;;;;5045372;28;20215;-94
2022/02/24 00:36:34;;;;;;;155.15;58.60;;;;;;;;;;5040039;28;20204;-94
2022/02/24 00:39:00;;;;;;;159.80;59.38;;;;;;;;;;5040444;28;20228;-95
2022/02/24 00:41:26;;;;;;;157.57;59.90;;;;;;;;;;5040325;28;20196;-95
2022/02/24 00:43:53;;;;;;;163.02;59.60;;;;;;;;;;5041523;28;20231;-95
2022/02/24 00:46:19;;;;;;;169.75;59.85;;;;;;;;;;5041207;28;20274;-96
2022/02/24 00:48:46;;;;;;;167.18;62.70;;;;;;;;;;5040619;28;20263;-96
2022/02/24 00:51:12;;;;;;;162.82;60.20;;;;;;;;;;5040244;28;20231;-96
2022/02/24 00:53:41;;;;;;;162.13;60.38;;;;;;;;;;5040769;28;20205;-96
2022/02/24 00:56:08;;;;;;;165.10;59.97;;;;;;;;;;5042042;28;20231;-96
2022/02/24 00:58:34;;;;;;;161.68;59.10;;;;;;;;;;5044729;28;20232;-96
2022/02/24 01:01:01;;;;;;;158.55;59.70;;;;;;;;;;5044487;28;20204;-96
2022/02/24 01:03:27;;;;;;;151.63;59.00;;;;;;;;;;5044003;28;20204;-96
2022/02/24 01:05:54;;;;;;;148.48;58.50;;;;;;;;;;5043729;28;20204;-96
2022/02/24 01:08:20;;;;;;;157.85;60.00;;;;;;;;;;5056654;28;20204;-95
2022/02/24 01:10:48;;;;;;;144.57;58.30;;;;;;;;;;5042804;28;20219;-95
2022/02/24 01:13:14;;;;;;;148.70;57.70;;;;;;;;;;5061136;28;20204;-96
2022/02/24 01:15:42;;;;;;;154.02;60.30;;;;;;;;;;5063866;28;20230;-96
2022/02/24 01:18:09;;;;;;;162.98;59.20;;;;;;;;;;5056178;28;20220;-96
2022/02/24 01:20:36;;;;;;;160.32;58.92;;;;;;;;;;5046485;28;20290;-96
2022/02/24 01:23:02;;;;;;;164.90;60.65;;;;;;;;;;5044665;28;20231;-96
2022/02/24 01:25:29;;;;;;;159.95;59.00;;;;;;;;;;5043297;28;20201;-96
2022/02/24 01:27:57;;;;;;;166.95;60.28;;;;;;;;;;5043341;28;20208;-96
2022/02/24 01:30:23;;;;;;;166.07;61.17;;;;;;;;;;5042384;28;20231;-96
2022/02/24 01:32:50;;;;;;;163.70;59.97;;;;;;;;;;5042944;28;20204;-96
2022/02/24 01:35:16;;;;;;;166.48;60.53;;;;;;;;;;5041977;28;20201;-96
2022/02/24 01:37:44;;;;;;;159.00;59.30;;;;;;;;;;5054795;28;20595;-96
2022/02/24 01:40:12;;;;;;;148.25;58.30;;;;;;;;;;5064118;28;20203;-96
2022/02/24 01:42:39;;;;;;;145.48;56.28;;;;;;;;;;5044022;28;20220;-96
2022/02/24 01:45:08;;;;;;;148.13;57.38;;;;;;;;;;5047505;28;20208;-96
2022/02/24 01:47:34;;;;;;;142.63;57.50;;;;;;;;;;5053240;28;20263;-96
2022/02/24 01:50:01;;;;;;;158.30;58.28;;;;;;;;;;5046180;28;20220;-96
2022/02/24 01:52:28;;;;;;;143.05;57.72;;;;;;;;;;5048927;28;20201;-95
2022/02/24 01:57:36;;;;;;;137.55;57.50;;;;;;;;;;5055385;28;20254;-96
2022/02/24 02:00:04;;;;;;;139.85;57.88;;;;;;;;;;5050558;28;20200;-96
2022/02/24 02:02:45;;;;;;;138.45;56.40;;;;;;;;;;5058713;28;20247;-96
2022/02/24 02:05:12;;;;;;;141.50;58.65;;;;;;;;;;5049345;28;20291;-96
2022/02/24 02:07:40;;;;;;;134.02;55.05;;;;;;;;;;5059852;28;20200;-96
2022/02/24 02:10:07;;;;;;;137.90;57.30;;;;;;;;;;5067511;28;20254;-96
2022/02/24 02:12:44;;;;;;;133.70;56.13;;;;;;;;;;5058711;28;20223;-96
2022/02/24 02:15:11;;;;;;;135.93;57.47;;;;;;;;;;5049641;28;20238;-96
2022/02/24 02:17:39;;;;;;;137.43;57.88;;;;;;;;;;5047155;28;20219;-96
2022/02/24 02:20:06;;;;;;;131.20;55.70;;;;;;;;;;5047536;28;20224;-96
2022/02/24 02:22:34;;;;;;;138.35;56.55;;;;;;;;;;5045760;28;20193;-96
2022/02/24 02:25:03;;;;;;;135.38;58.22;;;;;;;;;;5043468;28;20287;-96
2022/02/24 02:27:29;;;;;;;135.50;57.17;;;;;;;;;;5042585;28;20197;-96
2022/02/24 02:29:56;;;;;;;137.02;57.38;;;;;;;;;;5043125;28;20205;-96
2022/02/24 02:32:22;;;;;;;132.88;57.10;;;;;;;;;;5043250;28;20205;-96
2022/02/24 02:34:49;;;;;;;132.90;57.25;;;;;;;;;;5042854;28;20205;-95
2022/02/24 02:37:15;;;;;;;134.13;57.58;;;;;;;;;;5047022;28;20222;-95
2022/02/24 02:39:43;;;;;;;136.07;55.95;;;;;;;;;;5060235;28;20258;-95
2022/02/24 02:42:09;;;;;;;134.88;57.00;;;;;;;;;;5060570;28;20224;-96
2022/02/24 02:44:36;;;;;;;137.15;57.63;;;;;;;;;;5051102;28;20231;-95
2022/02/24 02:47:02;;;;;;;132.80;56.17;;;;;;;;;;5042268;28;20837;-95
2022/02/24 02:49:29;;;;;;;137.68;56.40;;;;;;;;;;5042557;28;20208;-95
2022/02/24 02:51:55;;;;;;;134.85;56.17;;;;;;;;;;5043447;28;20476;-95
2022/02/24 02:54:22;;;;;;;128.23;54.65;;;;;;;;;;5063545;28;20254;-96
2022/02/24 02:56:51;;;;;;;131.02;54.97;;;;;;;;;;5064457;28;20234;-96
2022/02/24 02:59:19;;;;;;;135.18;56.28;;;;;;;;;;5025147;28;20225;-94
2022/02/24 03:01:50;;;;;;;138.65;56.10;;;;;;;;;;5043452;28;20240;-94
2022/02/24 03:04:19;;;;;;;138.88;55.78;;;;;;;;;;5046687;28;20272;-96
2022/02/24 03:06:46;;;;;;;136.85;54.45;;;;;;;;;;5045848;28;20204;-89
2022/02/24 03:09:12;;;;;;;141.68;55.38;;;;;;;;;;5062207;28;20196;-94
2022/02/24 03:11:39;;;;;;;133.48;54.35;;;;;;;;;;5063164;28;20227;-93
2022/02/24 03:14:07;;;;;;;137.88;56.05;;;;;;;;;;5061478;28;20230;-93
2022/02/24 03:16:33;;;;;;;145.38;56.80;;;;;;;;;;5060466;28;20665;-95
2022/02/24 03:19:00;;;;;;;148.88;56.97;;;;;;;;;;5041105;28;20233;-95
2022/02/24 03:21:26;;;;;;;140.15;57.38;;;;;;;;;;5042291;28;20208;-92
2022/02/24 03:23:53;;;;;;;132.70;53.53;;;;;;;;;;5057582;28;20226;-94
2022/02/24 03:26:19;;;;;;;140.13;56.08;;;;;;;;;;5062354;28;20200;-95
2022/02/24 03:28:46;;;;;;;138.70;54.90;;;;;;;;;;5061824;28;20196;-93
2022/02/24 03:31:13;;;;;;;131.80;54.95;;;;;;;;;;5061841;28;20204;-94
2022/02/24 03:33:40;;;;;;;134.02;54.70;;;;;;;;;;5047440;28;20209;-94
2022/02/24 03:36:08;;;;;;;138.32;54.53;;;;;;;;;;5042134;28;20304;-96
2022/02/24 03:38:34;;;;;;;138.32;57.80;;;;;;;;;;5040898;28;20220;-91
2022/02/24 03:41:01;;;;;;;134.85;54.00;;;;;;;;;;5042216;28;20266;-96
2022/02/24 03:43:27;;;;;;;134.38;53.20;;;;;;;;;;5043508;28;20205;-94
2022/02/24 03:45:54;;;;;;;140.65;55.08;;;;;;;;;;5045741;28;20204;-96
2022/02/24 03:48:22;;;;;;;146.20;55.20;;;;;;;;;;5042120;28;20215;-96
2022/02/24 03:50:49;;;;;;;142.27;55.65;;;;;;;;;;5041286;28;20204;-94
2022/02/24 03:53:15;;;;;;;140.93;55.10;;;;;;;;;;5042469;28;20283;-95
2022/02/24 03:55:42;;;;;;;138.15;55.50;;;;;;;;;;5042225;28;20205;-92
2022/02/24 03:58:08;;;;;;;147.23;56.70;;;;;;;;;;5041078;28;20205;-95
2022/02/24 04:00:35;;;;;;;137.85;54.90;;;;;;;;;;5040468;28;20321;-93
2022/02/24 04:03:01;;;;;;;141.70;55.00;;;;;;;;;;5045973;28;20868;-95
2022/02/24 04:05:29;;;;;;;136.93;55.30;;;;;;;;;;5060946;28;20278;-93
2022/02/24 04:07:56;;;;;;;137.90;55.13;;;;;;;;;;5044622;28;20193;-94
2022/02/24 04:10:22;;;;;;;137.65;54.85;;;;;;;;;;5040402;28;20603;-93
2022/02/24 04:12:49;;;;;;;137.27;56.45;;;;;;;;;;5040252;28;20231;-94
2022/02/24 04:15:16;;;;;;;139.15;56.03;;;;;;;;;;5040990;28;20227;-95
2022/02/24 04:17:43;;;;;;;136.38;54.15;;;;;;;;;;5044668;28;20229;-95
2022/02/24 04:20:10;;;;;;;138.23;54.65;;;;;;;;;;5060933;28;20270;-93
2022/02/24 04:22:38;;;;;;;144.63;56.45;;;;;;;;;;5050081;28;20262;-94
2022/02/24 04:25:05;;;;;;;142.25;55.42;;;;;;;;;;5041813;28;20205;-96
2022/02/24 04:27:35;;;;;;;133.65;53.00;;;;;;;;;;5042499;28;20208;-96
2022/02/24 04:30:03;;;;;;;137.18;54.42;;;;;;;;;;5046264;28;20201;-96
2022/02/24 04:32:30;;;;;;;138.88;55.05;;;;;;;;;;5053696;28;20232;-92
2022/02/24 04:34:56;;;;;;;142.98;54.97;;;;;;;;;;5026892;28;20233;-96
2022/02/24 04:37:23;;;;;;;135.20;54.35;;;;;;;;;;5027710;28;21871;-95
2022/02/24 04:39:52;;;;;;;138.00;54.10;;;;;;;;;;5049275;28;20278;-96
2022/02/24 04:42:19;;;;;;;146.73;57.53;;;;;;;;;;5058226;28;20200;-95
2022/02/24 04:44:45;;;;;;;149.73;57.65;;;;;;;;;;5046209;28;20212;-95
2022/02/24 04:47:12;;;;;;;148.32;54.90;;;;;;;;;;5045367;28;20200;-96
2022/02/24 04:49:38;;;;;;;142.05;54.58;;;;;;;;;;5043031;28;20208;-94
2022/02/24 04:52:05;;;;;;;147.80;54.63;;;;;;;;;;5046027;28;20235;-93
2022/02/24 04:54:32;;;;;;;141.82;56.03;;;;;;;;;;5042981;28;21047;-91
2022/02/24 04:57:00;;;;;;;138.02;56.05;;;;;;;;;;5043399;28;20727;-96
2022/02/24 04:59:26;;;;;;;139.00;54.90;;;;;;;;;;5048177;28;20299;-95
2022/02/24 05:01:53;;;;;;;137.50;53.67;;;;;;;;;;5045923;28;20245;-95
2022/02/24 05:04:19;;;;;;;153.93;55.95;;;;;;;;;;5056304;28;20215;-92
2022/02/24 05:06:45;;;;;;;136.65;53.88;;;;;;;;;;5063643;28;20249;-92
2022/02/24 05:09:12;;;;;;;136.40;53.00;;;;;;;;;;5065551;28;20225;-94
2022/02/24 05:11:39;;;;;;;129.98;52.22;;;;;;;;;;5052828;28;20205;-90
2022/02/24 05:14:06;;;;;;;140.65;57.80;;;;;;;;;;5054643;28;20755;-95
2022/02/24 05:16:33;;;;;;;123.07;53.17;;;;;;;;;;5063725;28;20204;-95
2022/02/24 05:18:59;;;;;;;124.47;53.72;;;;;;;;;;5050633;28;20715;-96
2022/02/24 05:21:26;;;;;;;121.63;53.17;;;;;;;;;;5044871;28;20205;-93
2022/02/24 05:23:53;;;;;;;121.70;52.03;;;;;;;;;;5045164;28;20197;-94
2022/02/24 05:26:19;;;;;;;120.47;52.88;;;;;;;;;;5043849;28;20220;-96
2022/02/24 05:28:46;;;;;;;121.43;52.60;;;;;;;;;;5045085;28;20196;-94
2022/02/24 05:31:14;;;;;;;119.35;52.33;;;;;;;;;;5045176;28;20200;-94
2022/02/24 05:33:40;;;;;;;120.15;53.33;;;;;;;;;;5049980;28;20234;-92
2022/02/24 05:36:08;;;;;;;122.50;53.20;;;;;;;;;;5062688;28;20226;-93
2022/02/24 05:38:35;;;;;;;120.95;51.08;;;;;;;;;;5033538;28;20235;-93
2022/02/24 05:41:02;;;;;;;116.45;50.78;;;;;;;;;;5044485;28;20287;-95
2022/02/24 05:43:28;;;;;;;118.70;52.75;;;;;;;;;;5042167;28;20197;-95
2022/02/24 05:45:55;;;;;;;129.30;54.95;;;;;;;;;;5041857;28;21028;-96
2022/02/24 05:48:23;;;;;;;120.80;53.05;;;;;;;;;;5045764;28;20200;-93
2022/02/24 05:50:50;;;;;;;118.10;53.20;;;;;;;;;;5064083;28;20239;-96
2022/02/24 05:53:16;;;;;;;118.18;52.28;;;;;;;;;;5062334;28;20200;-93
2022/02/24 05:55:43;;;;;;;120.55;53.45;;;;;;;;;;5044645;28;20231;-94
2022/02/24 05:58:09;;;;;;;116.60;51.05;;;;;;;;;;5044503;28;20607;-91
2022/02/24 06:00:36;;;;;;;120.18;53.17;;;;;;;;;;5043507;28;20228;-93
2022/02/24 06:03:02;;;;;;;119.55;53.40;;;;;;;;;;5043254;28;20659;-90
2022/02/24 06:05:30;;;;;;;118.70;52.55;;;;;;;;;;5063597;28;20249;-92
2022/02/24 06:07:57;;;;;;;116.18;51.72;;;;;;;;;;5063023;28;20668;-91
2022/02/24 06:10:23;;;;;;;119.65;51.88;;;;;;;;;;5043697;28;20656;-91
2022/02/24 06:12:50;;;;;;;118.78;52.30;;;;;;;;;;5043215;28;20197;-93
2022/02/24 06:15:16;;;;;;;117.05;51.63;;;;;;;;;;5041971;28;20196;-93
2022/02/24 06:17:43;;;;;;;119.47;53.15;;;;;;;;;;5041556;28;20197;-92
2022/02/24 06:20:10;;;;;;;120.20;52.85;;;;;;;;;;5058982;28;20250;-91
2022/02/24 06:22:38;;;;;;;125.72;53.80;;;;;;;;;;5063198;28;20203;-90
2022/02/24 06:25:04;;;;;;;118.38;51.67;;;;;;;;;;5063443;28;20311;-93
2022/02/24 06:27:31;;;;;;;116.85;51.13;;;;;;;;;;5064322;28;20224;-93
2022/02/24 06:29:58;;;;;;;117.05;51.28;;;;;;;;;;5041446;28;20216;-92
2022/02/24 06:32:25;;;;;;;123.38;53.03;;;;;;;;;;5042697;28;20238;-91
2022/02/24 06:34:53;;;;;;;117.07;51.67;;;;;;;;;;5042871;28;20463;-93
2022/02/24 06:37:20;;;;;;;121.22;53.70;;;;;;;;;;5042502;28;20201;-93
2022/02/24 06:39:48;;;;;;;123.40;53.30;;;;;;;;;;5030834;28;20751;-91
2022/02/24 06:42:14;;;;;;;124.25;53.35;;;;;;;;;;5023385;28;20880;-92
2022/02/24 06:44:41;;;;;;;120.72;53.45;;;;;;;;;;5032581;28;20786;-92
2022/02/24 06:47:07;;;;;;;118.88;53.17;;;;;;;;;;5042058;28;20204;-92
2022/02/24 06:49:34;;;;;;;124.13;54.03;;;;;;;;;;5049893;28;20200;-95
2022/02/24 06:52:00;;;;;;;124.10;54.35;;;;;;;;;;5043136;28;20663;-92
2022/02/24 06:54:27;;;;;;;124.53;54.22;;;;;;;;;;5042401;28;20263;-94
2022/02/24 06:56:58;;;;;;;126.07;56.63;;;;;;;;;;5038584;28;20258;-93
2022/02/24 06:59:25;;;;;;;124.63;53.13;;;;;;;;;;5041457;28;20204;-94
2022/02/24 07:01:51;;;;;;;126.13;55.88;;;;;;;;;;5027785;28;20713;-92
2022/02/24 07:04:18;;;;;;;122.13;51.95;;;;;;;;;;5046841;28;21184;-95
2022/02/24 07:06:47;;;;;;;120.72;53.45;;;;;;;;;;5053262;28;20204;-91
2022/02/24 07:09:14;;;;;;;124.97;54.58;;;;;;;;;;5040500;28;20280;-93
2022/02/24 07:11:40;;;;;;;120.65;53.20;;;;;;;;;;5039325;28;20228;-92
2022/02/24 07:14:08;;;;;;;125.63;54.38;;;;;;;;;;5038815;28;20244;-91
2022/02/24 07:16:35;;;;;;;133.88;53.78;;;;;;;;;;5021572;28;20190;-95
2022/02/24 07:19:02;;;;;;;121.05;52.03;;;;;;;;;;5041145;28;20199;-93
2022/02/24 07:21:28;;;;;;;130.50;55.40;;;;;;;;;;5031855;28;20236;-94
2022/02/24 07:23:55;;;;;;;127.47;54.45;;;;;;;;;;5024708;28;20201;-91
2022/02/24 07:26:21;;;;;;;128.35;55.92;;;;;;;;;;5042108;28;20263;-95
2022/02/24 07:28:48;;;;;;;123.95;53.47;;;;;;;;;;5041749;28;20197;-93
2022/02/24 07:31:16;;;;;;;123.90;53.65;;;;;;;;;;5028075;28;20213;-95
2022/02/24 07:33:42;;;;;;;122.68;53.40;;;;;;;;;;5037659;28;20205;-93
2022/02/24 07:36:09;;;;;;;130.73;55.03;;;;;;;;;;5042845;28;20197;-92
2022/02/24 07:38:36;;;;;;;125.60;53.97;;;;;;;;;;5021134;28;20329;-95
2022/02/24 07:41:03;;;;;;;126.50;54.60;;;;;;;;;;5037849;28;20224;-95
2022/02/24 07:43:29;;;;;;;126.90;53.63;;;;;;;;;;5039565;28;20204;-95
2022/02/24 07:45:56;;;;;;;128.13;55.53;;;;;;;;;;5039395;28;20213;-94
2022/02/24 07:48:24;;;;;;;129.73;55.45;;;;;;;;;;5040657;28;20232;-96
2022/02/24 07:50:51;;;;;;;127.55;54.80;;;;;;;;;;5056248;28;20207;-92
2022/02/24 07:53:18;;;;;;;130.70;55.45;;;;;;;;;;5061249;28;20208;-93
2022/02/24 07:55:44;;;;;;;130.48;54.22;;;;;;;;;;5061918;28;20219;-91
2022/02/24 07:58:17;;;;;;;124.93;52.65;;;;;;;;;;5061588;28;20211;-96
2022/02/24 08:00:45;;;;;;;128.60;54.60;;;;;;;;;;5046115;28;20228;-94
2022/02/24 08:03:15;;;;;;;131.85;55.92;;;;;;;;;;5040059;28;20270;-94
2022/02/24 08:05:44;;;;;;;136.40;55.65;;;;;;;;;;5055008;28;20202;-94
2022/02/24 08:08:12;;;;;;;131.88;54.75;;;;;;;;;;5058346;28;20211;-92
2022/02/24 08:10:40;;;;;;;131.43;54.75;;;;;;;;;;5032554;28;20202;-90
2022/02/24 08:13:08;;;;;;;136.85;56.53;;;;;;;;;;5041494;28;20209;-92
2022/02/24 08:15:37;;;;;;;136.57;56.80;;;;;;;;;;5028827;28;20208;-89
2022/02/24 08:18:04;;;;;;;134.02;54.70;;;;;;;;;;5041318;28;20205;-91
2022/02/24 08:20:30;;;;;;;141.88;55.85;;;;;;;;;;5053622;28;20230;-93
2022/02/24 08:23:01;;;;;;;141.48;57.22;;;;;;;;;;5061600;28;20208;-91
2022/02/24 08:25:28;;;;;;;139.55;56.70;;;;;;;;;;5061150;28;20230;-89
2022/02/24 08:27:55;;;;;;;143.13;57.13;;;;;;;;;;5046372;28;20196;-90
2022/02/24 08:30:22;;;;;;;140.65;56.33;;;;;;;;;;5049622;28;20264;-90
2022/02/24 08:32:50;;;;;;;142.90;56.35;;;;;;;;;;5054541;28;20219;-90
2022/02/24 08:35:18;;;;;;;141.80;55.63;;;;;;;;;;5050208;28;20227;-94
2022/02/24 08:37:47;;;;;;;141.50;55.65;;;;;;;;;;5060911;28;20207;-91
2022/02/24 08:40:16;;;;;;;144.70;56.80;;;;;;;;;;5060682;28;20234;-92
2022/02/24 08:42:44;;;;;;;143.20;57.30;;;;;;;;;;5057860;28;20481;-90
2022/02/24 08:45:12;;;;;;;142.98;56.63;;;;;;;;;;5048561;28;20454;-94
2022/02/24 08:47:40;;;;;;;142.18;56.80;;;;;;;;;;5056696;28;20196;-90
2022/02/24 08:50:08;;;;;;;142.87;56.60;;;;;;;;;;5032240;28;20807;-89
2022/02/24 08:52:35;;;;;;;147.30;58.05;;;;;;;;;;5039576;28;20486;-87
2022/02/24 08:55:02;;;;;;;146.60;57.53;;;;;;;;;;5040888;28;20262;-92
2022/02/24 08:57:30;;;;;;;143.93;57.20;;;;;;;;;;5040514;28;20501;-92
2022/02/24 09:00:01;;;;;;;143.30;56.80;;;;;;;;;;5040821;28;20707;-90
2022/02/24 09:02:28;;;;;;;149.17;58.07;;;;;;;;;;5040197;28;20228;-90
2022/02/24 09:04:55;;;;;;;150.30;58.10;;;;;;;;;;5026490;28;20448;-88
2022/02/24 09:07:21;;;;;;;143.80;56.53;;;;;;;;;;5039557;28;20451;-91
2022/02/24 09:09:47;;;;;;;147.23;57.47;;;;;;;;;;5040779;28;20471;-91
2022/02/24 09:12:14;;;;;;;157.10;58.17;;;;;;;;;;5040370;28;20483;-91
2022/02/24 09:14:42;;;;;;;144.73;57.60;;;;;;;;;;5040623;28;20520;-88
2022/02/24 09:17:10;;;;;;;148.07;57.90;;;;;;;;;;5043567;28;20916;-89
2022/02/24 09:19:39;;;;;;;146.50;57.77;;;;;;;;;;5045488;28;20450;-93
2022/02/24 09:22:05;;;;;;;149.10;59.10;;;;;;;;;;5050273;28;20521;-92
2022/02/24 09:24:33;;;;;;;143.57;56.10;;;;;;;;;;5062038;28;20506;-94
2022/02/24 09:26:59;;;;;;;157.10;58.80;;;;;;;;;;5059672;28;20443;-91
2022/02/24 09:29:26;;;;;;;151.73;57.37;;;;;;;;;;5046756;28;20459;-91
2022/02/24 09:31:54;;;;;;;141.30;55.80;;;;;;;;;;5043358;28;20478;-90
2022/02/24 09:34:20;;;;;;;142.80;56.30;;;;;;;;;;5044016;28;20447;-90
2022/02/24 09:36:47;;;;;;;139.10;56.20;;;;;;;;;;5044162;28;20463;-89
2022/02/24 09:39:14;;;;;;;145.37;58.00;;;;;;;;;;5043174;28;20457;-92
2022/02/24 09:41:40;;;;;;;148.87;58.47;;;;;;;;;;5051454;28;20494;-94
2022/02/24 09:44:07;;;;;;;141.73;57.87;;;;;;;;;;5059399;28;20455;-91
2022/02/24 09:46:35;;;;;;;142.33;57.10;;;;;;;;;;5052470;28;20447;-90
2022/02/24 09:49:03;;;;;;;141.50;55.40;;;;;;;;;;5058228;28;20457;-91
2022/02/24 09:51:30;;;;;;;144.00;57.37;;;;;;;;;;5061847;28;20465;-93
2022/02/24 09:53:56;;;;;;;146.97;56.97;;;;;;;;;;5045291;28;20455;-92
2022/02/24 09:56:29;;;;;;;158.50;58.77;;;;;;;;;;5040748;28;20447;-90
2022/02/24 09:58:55;;;;;;;158.87;59.00;;;;;;;;;;5027938;28;20463;-91
2022/02/24 10:01:22;;;;;;;154.87;59.80;;;;;;;;;;5054069;28;20490;-91
2022/02/24 10:03:54;;;;;;;154.63;60.87;;;;;;;;;;5042294;28;20519;-95
2022/02/24 10:06:32;;;;;;;152.03;58.67;;;;;;;;;;5055088;28;20454;-94
2022/02/24 10:08:59;;;;;;;146.90;57.20;;;;;;;;;;5057490;28;20447;-95
2022/02/24 10:11:27;;;;;;;149.27;57.30;;;;;;;;;;5045468;28;20451;-95
2022/02/24 10:13:57;;;;;;;146.50;56.90;;;;;;;;;;5045644;28;20456;-93
2022/02/24 10:16:32;;;;;;;148.97;58.10;;;;;;;;;;5047490;28;20476;-94
2022/02/24 10:19:10;;;;;;;151.10;58.80;;;;;;;;;;5042607;28;20451;-96
2022/02/24 10:21:38;;;;;;;149.43;57.30;;;;;;;;;;5043683;28;20491;-94
2022/02/24 10:24:05;;;;;;;149.80;57.90;;;;;;;;;;5041420;28;20455;-96
2022/02/24 10:26:31;;;;;;;146.73;55.93;;;;;;;;;;5046484;28;20478;-95
2022/02/24 10:28:58;;;;;;;146.33;58.00;;;;;;;;;;5043690;28;20943;-96
2022/02/24 10:31:26;;;;;;;147.23;57.87;;;;;;;;;;5046639;28;21301;-96
2022/02/24 10:33:53;;;;;;;148.70;58.00;;;;;;;;;;5045795;28;20480;-95
2022/02/24 10:36:21;;;;;;;149.07;58.00;;;;;;;;;;5049013;28;20448;-96
2022/02/24 10:38:59;;;;;;;149.27;57.57;;;;;;;;;;5050241;28;20478;-96
2022/02/24 10:41:30;;;;;;;153.37;58.83;;;;;;;;;;5062340;28;20804;-96
2022/02/24 10:44:14;;;;;;;153.80;58.20;;;;;;;;;;5066986;28;20513;-96
2022/02/24 10:46:40;;;;;;;156.10;60.73;;;;;;;;;;5062065;28;20472;-96
2022/02/24 10:49:07;;;;;;;155.93;59.40;;;;;;;;;;5068341;28;20461;-96
2022/02/24 10:51:35;;;;;;;157.70;58.97;;;;;;;;;;5067499;28;20451;-96
2022/02/24 10:54:05;;;;;;;169.33;61.53;;;;;;;;;;5066817;28;20461;-96
2022/02/24 10:56:32;;;;;;;162.00;60.73;;;;;;;;;;5067845;28;20449;-96
2022/02/24 10:58:58;;;;;;;155.30;58.23;;;;;;;;;;5046846;28;20463;-96
2022/02/24 11:01:26;;;;;;;162.80;59.13;;;;;;;;;;5049742;28;20479;-95
2022/02/24 11:03:53;;;;;;;162.10;59.70;;;;;;;;;;5049786;28;20451;-96
2022/02/24 11:06:21;;;;;;;160.27;59.10;;;;;;;;;;5042556;28;20435;-95
2022/02/24 11:08:52;;;;;;;159.80;61.20;;;;;;;;;;5048953;28;20506;-96
2022/02/24 11:11:33;;;;;;;158.77;58.63;;;;;;;;;;5048704;28;20465;-96
2022/02/24 11:14:00;;;;;;;163.20;59.70;;;;;;;;;;5083363;22;20568;-96
2022/02/24 11:16:29;;;;;;;160.90;59.40;;;;;;;;;;5071090;28;20480;-96
2022/02/24 11:18:58;;;;;;;159.77;59.07;;;;;;;;;;5067693;28;20442;-96
2022/02/24 11:21:25;;;;;;;165.57;60.20;;;;;;;;;;5067696;28;20482;-95
2022/02/24 11:23:57;;;;;;;152.57;59.57;;;;;;;;;;5066885;28;20454;-96
2022/02/24 11:26:33;;;;;;;151.57;58.13;;;;;;;;;;5065426;28;20457;-96
2022/02/24 11:29:03;;;;;;;150.53;57.97;;;;;;;;;;5063678;28;20450;-96
2022/02/24 11:31:33;;;;;;;152.27;59.40;;;;;;;;;;5068102;28;20538;-96
2022/02/24 11:34:00;;;;;;;151.80;58.87;;;;;;;;;;5068515;28;20462;-96
2022/02/24 11:36:38;;;;;;;153.80;58.37;;;;;;;;;;5064565;28;20451;-95
2022/02/24 11:39:11;;;;;;;154.03;58.70;;;;;;;;;;5063711;28;20439;-95
2022/02/24 11:41:56;;;;;;;154.07;59.13;;;;;;;;;;5063282;28;20490;-96
2022/02/24 11:44:33;;;;;;;159.80;58.40;;;;;;;;;;5066874;28;20450;-96
2022/02/24 11:47:02;;;;;;;168.20;69.57;;;;;;;;;;5063857;22;20469;-96
2022/02/24 11:49:44;;;;;;;153.47;58.77;;;;;;;;;;5072784;28;20481;-96
2022/02/24 11:52:19;;;;;;;152.03;58.30;;;;;;;;;;5054974;28;20451;-96
2022/02/24 11:54:46;;;;;;;149.37;57.50;;;;;;;;;;5048489;28;20469;-96
2022/02/24 11:57:27;;;;;;;147.03;57.93;;;;;;;;;;5061064;28;20454;-96
2022/02/24 11:59:54;;;;;;;157.10;61.13;;;;;;;;;;5067360;28;20482;-96
2022/02/24 12:02:20;;;;;;;159.33;59.13;;;;;;;;;;5065956;28;20494;-96
2022/02/24 12:04:47;;;;;;;172.30;61.27;;;;;;;;;;5065697;28;20806;-96
2022/02/24 12:07:15;;;;;;;188.23;63.67;;;;;;;;;;5063586;28;20439;-95
2022/02/24 12:09:42;;;;;;;200.87;63.17;;;;;;;;;;5065565;28;20447;-95
2022/02/24 12:12:10;;;;;;;245.18;65.70;;;;;;;;;;5065258;28;20504;-96
2022/02/24 12:14:47;;;;;;;190.60;62.50;;;;;;;;;;5068913;28;20203;-96
2022/02/24 12:17:15;;;;;;;200.63;62.93;;;;;;;;;;5061730;28;20473;-96
2022/02/24 12:20:05;;;;;;;214.17;63.80;;;;;;;;;;5045226;28;20445;-96
2022/02/24 12:22:33;;;;;;;189.07;63.23;;;;;;;;;;5063316;28;20490;-96
2022/02/24 12:25:05;;;;;;;219.70;62.57;;;;;;;;;;5069848;28;20447;-96
2022/02/24 12:27:36;;;;;;;243.27;67.87;;;;;;;;;;5066439;28;20492;-96
2022/02/24 12:30:15;;;;;;;349.90;81.80;;;;;;;;;;5065222;28;20446;-96
2022/02/24 12:32:42;;;;;;;159.07;59.37;;;;;;;;;;5034399;28;20258;-96
2022/02/24 12:35:10;;;;;;;176.17;62.10;;;;;;;;;;5066826;28;20480;-96
2022/02/24 12:37:38;;;;;;;170.17;59.37;;;;;;;;;;5066321;28;20450;-96
2022/02/24 12:40:05;;;;;;;176.63;61.90;;;;;;;;;;5064096;28;20496;-96
2022/02/24 12:42:33;;;;;;;178.40;62.30;;;;;;;;;;5067057;28;20576;-96
2022/02/24 12:45:01;;;;;;;177.70;60.90;;;;;;;;;;5054445;28;20450;-96
2022/02/24 12:47:29;;;;;;;177.50;60.70;;;;;;;;;;5061631;28;20486;-95
2022/02/24 12:52:37;;;;;;;182.40;62.30;;;;;;;;;;5066748;28;20438;-95
2022/02/24 12:55:04;;;;;;;180.23;61.97;;;;;;;;;;5070709;28;20450;-96
2022/02/24 12:57:38;;;;;;;181.80;60.80;;;;;;;;;;5069682;28;20521;-96
2022/02/24 13:00:04;;;;;;;182.20;62.20;;;;;;;;;;5070754;28;20453;-96
2022/02/24 13:02:33;;;;;;;185.80;62.40;;;;;;;;;;5075940;28;20489;-96
2022/02/24 13:05:02;;;;;;;180.60;62.30;;;;;;;;;;5070161;28;20468;-96
2022/02/24 13:10:14;;;;;;;179.70;60.20;;;;;;;;;;5070847;28;20432;-96
2022/02/24 13:12:41;;;;;;;174.97;59.07;;;;;;;;;;5050525;28;20473;-96
2022/02/24 13:15:10;;;;;;;182.97;63.20;;;;;;;;;;5069188;28;20455;-96
2022/02/24 13:17:44;;;;;;;184.13;64.47;;;;;;;;;;5069402;28;20461;-96
2022/02/24 13:20:11;;;;;;;181.67;60.33;;;;;;;;;;5067355;28;20485;-96
2022/02/24 13:22:43;;;;;;;186.00;62.20;;;;;;;;;;5071244;28;20520;-96
2022/02/24 13:25:11;;;;;;;182.23;61.20;;;;;;;;;;5070040;28;20822;-96
2022/02/24 13:27:45;;;;;;;183.67;61.63;;;;;;;;;;5068959;28;20474;-96
2022/02/24 13:30:12;;;;;;;192.63;62.73;;;;;;;;;;5070467;28;20454;-95
2022/02/24 13:32:40;;;;;;;181.57;61.20;;;;;;;;;;5074200;28;20491;-95
2022/02/24 13:35:08;;;;;;;183.10;61.90;;;;;;;;;;5068748;28;20450;-96
2022/02/24 13:37:35;;;;;;;177.03;61.00;;;;;;;;;;5074197;28;20453;-96
2022/02/24 13:40:06;;;;;;;179.47;62.47;;;;;;;;;;5073731;28;20484;-96
2022/02/24 13:42:32;;;;;;;178.97;61.17;;;;;;;;;;5068683;28;20490;-95
2022/02/24 13:45:01;;;;;;;176.67;60.10;;;;;;;;;;5044308;28;20438;-96
2022/02/24 13:47:28;;;;;;;180.70;61.60;;;;;;;;;;5074609;28;20514;-95
2022/02/24 13:50:01;;;;;;;181.67;61.40;;;;;;;;;;5083273;28;20462;-96
2022/02/24 13:52:31;;;;;;;186.67;61.87;;;;;;;;;;5059367;28;20482;-96
2022/02/24 13:55:02;;;;;;;181.80;62.70;;;;;;;;;;5066001;28;20469;-96
2022/02/24 13:57:41;;;;;;;182.97;61.10;;;;;;;;;;5075782;28;20476;-96
2022/02/24 14:00:09;;;;;;;180.10;60.73;;;;;;;;;;5070586;28;20454;-96
2022/02/24 14:02:37;;;;;;;182.40;62.00;;;;;;;;;;5060006;28;20485;-96
2022/02/24 14:05:09;;;;;;;187.97;61.87;;;;;;;;;;5069363;28;20950;-96
2022/02/24 14:07:38;;;;;;;188.80;62.33;;;;;;;;;;5064627;28;20475;-96
2022/02/24 14:10:05;;;;;;;185.50;61.07;;;;;;;;;;5069666;28;20497;-96
2022/02/24 14:12:32;;;;;;;197.10;64.07;;;;;;;;;;5067560;28;20459;-96
2022/02/24 14:15:02;;;;;;;208.20;63.47;;;;;;;;;;5063766;28;20504;-95
2022/02/24 14:17:31;;;;;;;203.90;62.47;;;;;;;;;;5066935;28;20458;-95